Time;durP1;ratioP1;P1;durP2;ratioP2;P2;SDS_P1;SDS_P2;PMS_P1;PMS_P2;Temp;Humidity;BMP_temperature;BMP_pressure;BME280_temperature;BME280_humidity;BME280_pressure;Samples;Min_cycle;Max_cycle;Signal;HPM_P1;HPM_P2
2021/01/09 00:02:03;;;;;;;41.90;29.77;;;2.20;92.10;;;;;;5017112;28;20232;-85
2021/01/09 00:04:30;;;;;;;42.30;29.63;;;2.20;92.10;;;;;;5018327;28;20272;-85
2021/01/09 00:07:01;;;;;;;43.43;31.23;;;2.10;92.10;;;;;;5005212;28;20307;-85
2021/01/09 00:09:28;;;;;;;45.23;30.17;;;2.10;92.10;;;;;;5006061;28;20208;-85
2021/01/09 00:11:56;;;;;;;45.17;30.60;;;2.10;92.20;;;;;;5016012;28;20196;-85
2021/01/09 00:14:23;;;;;;;46.83;31.63;;;2.10;92.20;;;;;;4998978;28;20208;-85
2021/01/09 00:16:52;;;;;;;47.33;31.63;;;2.10;92.20;;;;;;4997863;28;20220;-85
2021/01/09 00:19:19;;;;;;;45.40;30.63;;;2.10;92.20;;;;;;5013932;28;20208;-86
2021/01/09 00:21:52;;;;;;;44.60;31.13;;;2.00;92.20;;;;;;4999829;28;20200;-85
2021/01/09 00:24:19;;;;;;;45.70;31.00;;;2.00;92.30;;;;;;5013877;28;20715;-86
2021/01/09 00:26:46;;;;;;;43.10;30.43;;;2.10;92.30;;;;;;4998429;28;20247;-86
2021/01/09 00:29:15;;;;;;;44.73;31.57;;;2.10;92.30;;;;;;5015142;28;20227;-86
2021/01/09 00:31:42;;;;;;;45.83;30.50;;;2.10;92.60;;;;;;5014380;28;20226;-86
2021/01/09 00:34:09;;;;;;;43.10;28.83;;;2.10;92.40;;;;;;4998644;28;20295;-85
2021/01/09 00:36:38;;;;;;;55.10;30.63;;;2.10;92.40;;;;;;4997341;28;20553;-86
2021/01/09 00:39:08;;;;;;;46.87;32.90;;;2.10;92.40;;;;;;4999585;28;20277;-85
2021/01/09 00:41:41;;;;;;;43.50;31.30;;;2.10;92.40;;;;;;4979814;28;20243;-85
2021/01/09 00:44:08;;;;;;;44.13;30.93;;;2.10;92.40;;;;;;4994865;28;20257;-86
2021/01/09 00:46:35;;;;;;;42.73;30.53;;;2.00;92.30;;;;;;5001555;28;20200;-86
2021/01/09 00:49:04;;;;;;;46.43;32.00;;;2.00;92.30;;;;;;5001381;28;20599;-86
2021/01/09 00:51:33;;;;;;;45.37;31.77;;;2.00;92.40;;;;;;5018056;28;20208;-86
2021/01/09 00:54:01;;;;;;;45.67;31.03;;;2.00;92.40;;;;;;5017656;28;20212;-86
2021/01/09 00:56:29;;;;;;;46.90;30.60;;;2.00;92.40;;;;;;5017015;28;20299;-86
2021/01/09 00:58:56;;;;;;;47.40;30.73;;;2.00;92.40;;;;;;5000713;28;20219;-85
2021/01/09 01:01:22;;;;;;;44.40;31.90;;;2.00;92.40;;;;;;5015669;28;20232;-86
2021/01/09 01:03:49;;;;;;;46.67;30.70;;;1.90;92.40;;;;;;5016278;28;20208;-86
2021/01/09 01:06:23;;;;;;;45.20;30.93;;;1.90;92.40;;;;;;5001425;28;20216;-86
2021/01/09 01:08:50;;;;;;;44.20;31.70;;;1.90;92.50;;;;;;5016835;28;20232;-86
2021/01/09 01:11:28;;;;;;;46.20;31.60;;;1.90;92.50;;;;;;5001693;28;20212;-86
2021/01/09 01:13:57;;;;;;;48.23;31.17;;;1.90;92.50;;;;;;5000514;28;20295;-86
2021/01/09 01:16:25;;;;;;;42.43;29.03;;;1.90;92.50;;;;;;5016818;28;20545;-86
2021/01/09 01:18:53;;;;;;;48.00;31.47;;;1.90;92.50;;;;;;5000256;28;20240;-86
2021/01/09 01:21:23;;;;;;;43.37;31.23;;;1.90;92.50;;;;;;5001353;28;20303;-86
2021/01/09 01:23:52;;;;;;;46.60;30.83;;;1.90;92.50;;;;;;5002142;28;20617;-86
2021/01/09 01:26:19;;;;;;;45.20;31.77;;;1.90;92.60;;;;;;5001797;28;20219;-86
2021/01/09 01:28:47;;;;;;;47.10;30.93;;;1.90;92.60;;;;;;5018151;28;20223;-85
2021/01/09 01:31:17;;;;;;;44.90;29.83;;;1.90;92.60;;;;;;5017339;28;20228;-86
2021/01/09 01:33:43;;;;;;;48.77;32.13;;;1.80;92.50;;;;;;5017617;28;20220;-85
2021/01/09 01:36:11;;;;;;;45.07;30.03;;;1.80;92.50;;;;;;5017279;28;20288;-85
2021/01/09 01:38:39;;;;;;;45.60;30.80;;;1.80;92.50;;;;;;5016638;28;20223;-86
2021/01/09 01:41:08;;;;;;;46.43;30.90;;;1.80;92.50;;;;;;4997115;28;20264;-86
2021/01/09 01:43:36;;;;;;;47.20;30.07;;;1.80;92.50;;;;;;5017234;28;20260;-86
2021/01/09 01:46:06;;;;;;;43.87;29.63;;;1.80;92.60;;;;;;5008717;28;20267;-86
2021/01/09 01:48:35;;;;;;;46.80;29.93;;;1.80;92.60;;;;;;5016158;28;20215;-86
2021/01/09 01:51:04;;;;;;;42.50;29.90;;;1.80;92.60;;;;;;5015500;28;20272;-85
2021/01/09 01:53:33;;;;;;;47.67;30.40;;;1.80;92.60;;;;;;5000309;28;20307;-85
2021/01/09 01:55:59;;;;;;;45.27;30.83;;;1.80;92.60;;;;;;5017055;28;20243;-85
2021/01/09 01:58:26;;;;;;;42.17;29.93;;;1.70;92.60;;;;;;5015813;28;20558;-86
2021/01/09 02:00:54;;;;;;;42.27;29.40;;;1.70;92.60;;;;;;5000239;28;20315;-86
2021/01/09 02:03:21;;;;;;;39.77;29.93;;;1.60;92.60;;;;;;5005150;28;20657;-86
2021/01/09 02:06:09;;;;;;;44.43;29.63;;;1.60;92.60;;;;;;5015699;28;20227;-85
2021/01/09 02:08:41;;;;;;;46.27;29.83;;;1.60;92.70;;;;;;4999238;28;20243;-85
2021/01/09 02:11:18;;;;;;;42.93;29.43;;;1.60;92.70;;;;;;5015433;28;20216;-86
2021/01/09 02:14:00;;;;;;;46.83;30.37;;;1.60;92.70;;;;;;5000158;28;20208;-86
2021/01/09 02:16:28;;;;;;;48.07;31.20;;;1.50;92.70;;;;;;5015271;28;20212;-86
2021/01/09 02:27:41;;;;;;;46.97;30.20;;;1.50;92.70;;;;;;4953143;28;20210;-85
2021/01/09 02:30:29;;;;;;;42.17;28.37;;;1.50;92.70;;;;;;4937249;29;20214;-86
2021/01/09 02:33:07;;;;;;;47.40;29.53;;;1.50;92.60;;;;;;4938986;28;20217;-86
2021/01/09 02:35:37;;;;;;;43.37;28.50;;;1.40;92.50;;;;;;5010489;28;20222;-86
2021/01/09 02:38:05;;;;;;;41.87;28.40;;;1.30;92.60;;;;;;5014749;28;20208;-85
2021/01/09 02:40:43;;;;;;;44.23;28.70;;;1.30;92.90;;;;;;5016216;28;20232;-85
2021/01/09 02:43:12;;;;;;;49.87;29.27;;;1.20;92.80;;;;;;4997250;28;20244;-86
2021/01/09 02:45:39;;;;;;;44.47;29.60;;;1.20;92.80;;;;;;5007876;28;20213;-85
2021/01/09 02:48:07;;;;;;;45.53;30.33;;;1.20;92.80;;;;;;5012177;28;20643;-85
2021/01/09 02:50:34;;;;;;;43.80;29.43;;;1.30;92.90;;;;;;5013697;28;20212;-85
2021/01/09 02:53:01;;;;;;;41.60;29.13;;;1.20;92.80;;;;;;5015043;28;20219;-86
2021/01/09 02:55:28;;;;;;;39.20;27.40;;;1.20;92.90;;;;;;5014406;28;20208;-85
2021/01/09 02:57:55;;;;;;;43.40;28.73;;;1.20;92.90;;;;;;4998401;28;20521;-87
2021/01/09 03:00:22;;;;;;;42.43;28.73;;;1.20;92.90;;;;;;5014370;28;20831;-84
2021/01/09 03:02:51;;;;;;;42.13;28.67;;;1.20;92.90;;;;;;4998771;28;20205;-85
2021/01/09 03:05:17;;;;;;;44.57;27.40;;;1.20;92.90;;;;;;5000804;28;20232;-85
2021/01/09 03:07:46;;;;;;;45.07;29.90;;;1.20;92.90;;;;;;5001753;28;20212;-85
2021/01/09 03:10:24;;;;;;;38.80;27.70;;;1.20;93.00;;;;;;5003529;28;20219;-85
2021/01/09 03:12:51;;;;;;;43.50;29.07;;;1.20;93.00;;;;;;5002797;28;20318;-85
2021/01/09 03:15:18;;;;;;;44.40;30.47;;;1.20;93.00;;;;;;5001990;28;20242;-86
2021/01/09 03:17:45;;;;;;;46.87;29.87;;;1.20;93.00;;;;;;5016794;28;20219;-86
2021/01/09 03:20:19;;;;;;;45.90;30.50;;;1.20;93.00;;;;;;5015818;28;20236;-85
2021/01/09 03:22:45;;;;;;;43.17;29.83;;;1.20;93.00;;;;;;5016219;28;20205;-85
2021/01/09 03:25:12;;;;;;;46.50;30.53;;;1.20;93.00;;;;;;5015111;28;20311;-86
2021/01/09 03:27:39;;;;;;;44.37;30.60;;;1.20;93.00;;;;;;5015452;28;20240;-85
2021/01/09 03:30:06;;;;;;;42.40;30.33;;;1.20;93.00;;;;;;5015207;28;20220;-86
2021/01/09 03:32:33;;;;;;;44.17;29.90;;;1.20;93.00;;;;;;5006943;28;20308;-85
2021/01/09 03:35:13;;;;;;;45.07;30.87;;;1.20;93.00;;;;;;4996022;28;20213;-85
2021/01/09 03:37:41;;;;;;;46.67;30.43;;;1.20;93.00;;;;;;5006636;28;20645;-85
2021/01/09 03:40:08;;;;;;;43.33;29.47;;;1.20;93.00;;;;;;5015417;28;20311;-86
2021/01/09 03:42:35;;;;;;;48.57;30.83;;;1.20;93.00;;;;;;5014453;28;20216;-86
2021/01/09 03:45:02;;;;;;;47.80;30.03;;;1.20;93.00;;;;;;5000415;28;20648;-85
2021/01/09 03:47:29;;;;;;;44.47;29.50;;;1.20;93.00;;;;;;4999989;28;20219;-86
2021/01/09 03:49:56;;;;;;;43.67;28.83;;;1.20;92.90;;;;;;5015759;28;20226;-85
2021/01/09 03:52:24;;;;;;;46.07;30.30;;;1.20;92.90;;;;;;5015625;28;20215;-86
2021/01/09 03:54:54;;;;;;;44.30;30.10;;;1.20;93.00;;;;;;5015612;28;20295;-86
2021/01/09 03:57:20;;;;;;;44.07;28.40;;;1.20;93.00;;;;;;5015647;28;20303;-86
2021/01/09 03:59:47;;;;;;;42.47;28.83;;;1.20;92.90;;;;;;5015169;28;20213;-86
2021/01/09 04:02:14;;;;;;;43.63;28.50;;;1.20;92.90;;;;;;5014360;28;20214;-86
2021/01/09 04:04:42;;;;;;;40.87;27.67;;;1.20;92.80;;;;;;5015647;28;20219;-86
2021/01/09 04:07:09;;;;;;;41.90;28.57;;;1.20;92.90;;;;;;4998911;28;20223;-86
2021/01/09 04:09:36;;;;;;;39.77;26.80;;;1.20;92.90;;;;;;4999938;28;20275;-86
2021/01/09 04:12:06;;;;;;;40.90;27.93;;;1.20;92.90;;;;;;5016282;28;20586;-86
2021/01/09 04:14:34;;;;;;;41.83;27.43;;;1.20;92.80;;;;;;5024387;28;20223;-86
2021/01/09 04:17:01;;;;;;;39.40;27.17;;;1.20;92.80;;;;;;5015368;28;20219;-86
2021/01/09 04:19:28;;;;;;;40.80;26.40;;;1.30;92.90;;;;;;5015192;28;20211;-86
2021/01/09 04:21:55;;;;;;;38.90;26.90;;;1.30;92.80;;;;;;5015352;28;20237;-86
2021/01/09 04:24:24;;;;;;;38.50;27.00;;;1.30;92.80;;;;;;5017130;28;20215;-85
2021/01/09 04:26:55;;;;;;;39.07;26.57;;;1.30;92.80;;;;;;5015870;28;20654;-86
2021/01/09 04:29:22;;;;;;;38.53;26.40;;;1.30;92.80;;;;;;5015631;28;20208;-86
2021/01/09 04:31:51;;;;;;;45.70;27.33;;;1.30;92.80;;;;;;5015412;28;20235;-86
2021/01/09 04:34:20;;;;;;;42.80;26.33;;;1.30;92.80;;;;;;4999503;28;20226;-86
2021/01/09 04:36:49;;;;;;;38.10;25.83;;;1.30;92.80;;;;;;5015369;28;20603;-86
2021/01/09 04:39:16;;;;;;;37.93;25.03;;;1.30;92.70;;;;;;5015204;28;20207;-86
2021/01/09 04:41:43;;;;;;;36.13;25.20;;;1.30;92.70;;;;;;5015196;28;20234;-86
2021/01/09 04:44:12;;;;;;;35.87;25.33;;;1.30;92.70;;;;;;5014766;28;20258;-86
2021/01/09 04:46:48;;;;;;;35.00;25.97;;;1.30;92.70;;;;;;5016629;28;20204;-85
2021/01/09 04:49:17;;;;;;;38.13;25.13;;;1.20;92.70;;;;;;5014853;28;20211;-86
2021/01/09 04:51:46;;;;;;;39.33;26.73;;;1.20;92.70;;;;;;5017027;28;20615;-85
2021/01/09 04:58:35;;;;;;;38.60;26.27;;;1.20;92.70;;;;;;4976084;28;20281;-85
2021/01/09 05:01:08;;;;;;;37.50;25.47;;;1.20;92.70;;;;;;4972758;28;20229;-85
2021/01/09 05:03:39;;;;;;;37.93;25.13;;;1.10;92.60;;;;;;4992677;28;20219;-85
2021/01/09 05:06:24;;;;;;;37.33;25.70;;;1.10;92.70;;;;;;5001269;28;20287;-86
2021/01/09 05:08:51;;;;;;;37.07;25.27;;;1.10;92.70;;;;;;5015517;28;20222;-86
2021/01/09 05:11:18;;;;;;;37.97;26.37;;;1.10;92.70;;;;;;5011135;28;20228;-86
2021/01/09 05:13:49;;;;;;;38.93;26.57;;;1.10;92.70;;;;;;4979662;28;20212;-86
2021/01/09 05:16:16;;;;;;;39.00;25.47;;;1.00;92.70;;;;;;4980767;28;20656;-86
2021/01/09 05:18:43;;;;;;;39.83;26.77;;;1.00;92.70;;;;;;5015170;28;20266;-86
2021/01/09 05:21:13;;;;;;;42.23;27.10;;;1.00;92.70;;;;;;5014918;28;20223;-86
2021/01/09 05:23:51;;;;;;;37.87;25.33;;;1.00;92.70;;;;;;5012692;28;20214;-86
2021/01/09 05:26:23;;;;;;;39.23;26.17;;;1.00;92.70;;;;;;5014802;28;20202;-86
2021/01/09 05:29:01;;;;;;;40.33;25.40;;;1.00;92.70;;;;;;4998524;28;20293;-86
2021/01/09 05:31:31;;;;;;;39.77;25.33;;;0.90;92.70;;;;;;5017186;28;20261;-85
2021/01/09 05:33:58;;;;;;;43.00;26.60;;;0.90;92.60;;;;;;5002693;28;20216;-86
2021/01/09 05:36:26;;;;;;;41.57;26.00;;;0.90;92.60;;;;;;5018761;28;20220;-86
2021/01/09 05:38:52;;;;;;;38.73;25.93;;;0.90;92.70;;;;;;5029167;28;20223;-86
2021/01/09 05:41:21;;;;;;;42.53;27.43;;;0.80;92.70;;;;;;5018122;28;20751;-86
2021/01/09 05:44:05;;;;;;;38.57;26.30;;;0.80;92.70;;;;;;5008156;28;20271;-86
2021/01/09 05:46:37;;;;;;;36.83;25.60;;;0.80;92.80;;;;;;5017775;28;20211;-86
2021/01/09 05:49:05;;;;;;;42.97;27.10;;;0.90;92.80;;;;;;5017983;28;20644;-86
2021/01/09 05:51:38;;;;;;;41.43;27.93;;;0.80;92.70;;;;;;5019060;28;20260;-87
2021/01/09 05:54:07;;;;;;;39.00;26.53;;;0.80;92.70;;;;;;5018616;28;20215;-88
2021/01/09 05:56:39;;;;;;;44.00;27.63;;;0.80;92.60;;;;;;5018154;28;20533;-86
2021/01/09 05:59:09;;;;;;;40.33;27.93;;;0.80;92.60;;;;;;5017314;28;20211;-87
2021/01/09 06:01:41;;;;;;;44.07;29.10;;;0.80;92.70;;;;;;5001429;28;20323;-87
2021/01/09 06:04:22;;;;;;;43.00;27.80;;;0.70;92.70;;;;;;5017255;28;20651;-87
2021/01/09 06:07:11;;;;;;;40.10;26.67;;;0.70;92.70;;;;;;5017983;28;20207;-87
2021/01/09 06:09:56;;;;;;;40.47;27.27;;;0.70;92.70;;;;;;5020511;28;20216;-86
2021/01/09 06:12:26;;;;;;;40.63;27.20;;;0.70;92.70;;;;;;5020868;28;20525;-87
2021/01/09 06:14:55;;;;;;;43.40;27.03;;;0.70;92.70;;;;;;5019948;28;20246;-87
2021/01/09 06:17:22;;;;;;;38.97;26.13;;;0.70;92.80;;;;;;5020288;28;20277;-87
2021/01/09 06:19:49;;;;;;;38.43;26.10;;;0.70;92.80;;;;;;5019192;28;20219;-87
2021/01/09 06:22:19;;;;;;;43.47;27.20;;;0.70;92.80;;;;;;5018096;28;20231;-85
2021/01/09 06:25:02;;;;;;;41.70;26.50;;;0.70;92.80;;;;;;5008539;28;20208;-87
2021/01/09 06:27:34;;;;;;;39.73;27.00;;;0.70;92.80;;;;;;5018122;28;20247;-87
2021/01/09 06:30:08;;;;;;;46.30;27.50;;;0.60;92.80;;;;;;5019909;28;20210;-87
2021/01/09 06:32:39;;;;;;;40.73;26.53;;;0.70;92.80;;;;;;5018944;28;20287;-87
2021/01/09 06:35:08;;;;;;;40.97;26.43;;;0.60;92.80;;;;;;5020132;28;20550;-87
2021/01/09 06:37:35;;;;;;;43.73;27.87;;;0.60;92.80;;;;;;5021631;28;20266;-87
2021/01/09 06:40:02;;;;;;;35.23;24.10;;;0.60;92.80;;;;;;5004753;28;20218;-86
2021/01/09 06:42:32;;;;;;;39.57;25.23;;;0.60;92.80;;;;;;5017975;28;20239;-87
2021/01/09 06:45:01;;;;;;;36.87;24.57;;;0.60;92.80;;;;;;4999467;28;20619;-86
2021/01/09 06:47:30;;;;;;;40.93;25.97;;;0.60;92.80;;;;;;5000552;28;20200;-86
2021/01/09 06:50:19;;;;;;;36.73;25.17;;;0.50;92.80;;;;;;5000036;28;20544;-87
2021/01/09 06:52:55;;;;;;;43.87;27.23;;;0.50;92.80;;;;;;4996195;28;20212;-87
2021/01/09 06:55:41;;;;;;;39.97;26.97;;;0.50;92.80;;;;;;5014824;28;20212;-86
2021/01/09 06:58:18;;;;;;;40.17;26.17;;;0.50;92.80;;;;;;5002191;28;20212;-87
2021/01/09 07:01:19;;;;;;;39.90;25.23;;;0.60;92.90;;;;;;5005435;28;20232;-86
2021/01/09 07:03:47;;;;;;;35.63;25.33;;;0.50;92.70;;;;;;5017736;28;20216;-87
2021/01/09 07:06:14;;;;;;;41.73;26.57;;;0.60;92.70;;;;;;5001798;28;20231;-87
2021/01/09 07:08:51;;;;;;;41.53;26.10;;;0.50;92.70;;;;;;4986506;28;20213;-87
2021/01/09 07:11:18;;;;;;;47.47;27.50;;;0.60;92.70;;;;;;5022342;28;20212;-88
2021/01/09 07:14:13;;;;;;;42.93;27.83;;;0.60;92.70;;;;;;4985291;28;20243;-88
2021/01/09 07:16:41;;;;;;;41.57;26.20;;;0.60;92.70;;;;;;5000623;28;20197;-88
2021/01/09 07:19:12;;;;;;;42.33;27.13;;;0.70;92.70;;;;;;5016055;28;20247;-89
2021/01/09 07:21:54;;;;;;;42.03;27.03;;;0.70;92.70;;;;;;5006872;28;20242;-87
2021/01/09 07:24:22;;;;;;;39.47;26.60;;;0.80;92.60;;;;;;5019372;28;20288;-88
2021/01/09 07:26:51;;;;;;;45.50;27.83;;;0.80;92.60;;;;;;5013527;28;20216;-87
2021/01/09 07:29:26;;;;;;;35.10;24.53;;;0.90;92.60;;;;;;5014223;28;20743;-88
2021/01/09 07:31:53;;;;;;;40.07;25.70;;;0.90;92.70;;;;;;4998393;28;20683;-87
2021/01/09 07:34:23;;;;;;;43.03;25.50;;;1.00;92.50;;;;;;5014030;28;20308;-87
2021/01/09 07:36:53;;;;;;;42.60;27.37;;;1.10;92.50;;;;;;4997900;28;20220;-88
2021/01/09 07:39:25;;;;;;;43.97;26.43;;;1.10;92.40;;;;;;5002061;28;20323;-88
2021/01/09 07:42:29;;;;;;;38.30;25.77;;;1.20;92.40;;;;;;4995332;28;20656;-88
2021/01/09 07:45:11;;;;;;;42.63;26.53;;;1.40;92.40;;;;;;4996129;28;20270;-88
2021/01/09 07:47:40;;;;;;;42.27;27.07;;;1.40;92.30;;;;;;4996781;28;20316;-88
2021/01/09 07:50:13;;;;;;;40.17;25.67;;;1.60;92.20;;;;;;4999588;28;20302;-88
2021/01/09 07:52:45;;;;;;;41.40;26.90;;;1.70;92.10;;;;;;4999051;28;20219;-88
2021/01/09 07:55:17;;;;;;;40.10;25.10;;;1.80;92.00;;;;;;5011355;28;20232;-88
2021/01/09 07:57:45;;;;;;;39.53;26.00;;;1.90;91.80;;;;;;4997243;28;20311;-88
2021/01/09 08:00:14;;;;;;;42.30;27.77;;;2.00;91.70;;;;;;5013292;28;20304;-88
2021/01/09 08:02:43;;;;;;;42.97;26.90;;;2.10;91.60;;;;;;5013732;28;20526;-88
2021/01/09 08:05:15;;;;;;;38.57;25.37;;;2.20;91.50;;;;;;5012921;28;20299;-88
2021/01/09 08:07:44;;;;;;;34.73;25.73;;;2.30;91.50;;;;;;4996956;28;20205;-87
2021/01/09 08:10:17;;;;;;;38.40;25.43;;;2.40;91.40;;;;;;5013268;28;20572;-88
2021/01/09 08:12:46;;;;;;;38.43;25.93;;;2.60;91.30;;;;;;5014853;28;20208;-89
2021/01/09 08:15:13;;;;;;;34.30;25.40;;;2.70;91.20;;;;;;5012200;28;20215;-88
2021/01/09 08:17:42;;;;;;;37.40;26.10;;;2.80;91.00;;;;;;5012907;28;20212;-86
2021/01/09 08:20:11;;;;;;;37.10;25.43;;;2.90;90.80;;;;;;5011388;28;20212;-88
2021/01/09 08:22:52;;;;;;;37.50;26.23;;;3.00;90.70;;;;;;5002196;28;20213;-87
2021/01/09 08:25:21;;;;;;;36.17;24.83;;;3.00;90.60;;;;;;4998299;28;20290;-87
2021/01/09 08:27:54;;;;;;;40.83;26.43;;;3.10;90.50;;;;;;5011962;28;20213;-87
2021/01/09 08:30:35;;;;;;;37.73;27.00;;;3.10;90.40;;;;;;4995968;28;20250;-87
2021/01/09 08:33:14;;;;;;;38.27;25.77;;;3.20;90.30;;;;;;4981767;28;20213;-87
2021/01/09 08:35:48;;;;;;;36.63;25.33;;;3.20;90.30;;;;;;5010963;28;20228;-87
2021/01/09 08:38:16;;;;;;;36.67;26.13;;;3.20;90.20;;;;;;4994623;28;20226;-87
2021/01/09 08:40:43;;;;;;;40.93;26.50;;;3.20;90.20;;;;;;4997357;28;20224;-87
2021/01/09 08:43:12;;;;;;;36.43;27.20;;;3.20;90.20;;;;;;4994886;28;20247;-86
2021/01/09 08:45:43;;;;;;;38.10;25.43;;;3.20;90.30;;;;;;4994638;28;20248;-86
2021/01/09 08:48:30;;;;;;;35.90;25.67;;;3.20;90.20;;;;;;4995555;28;20307;-87
2021/01/09 08:51:14;;;;;;;36.00;26.50;;;3.20;90.10;;;;;;5011832;28;20284;-87
2021/01/09 08:53:48;;;;;;;35.03;24.27;;;3.30;90.10;;;;;;5001104;28;20278;-87
2021/01/09 08:56:18;;;;;;;36.33;25.50;;;3.30;90.10;;;;;;5004603;28;20220;-87
2021/01/09 08:58:46;;;;;;;36.47;26.70;;;3.30;90.00;;;;;;4992671;28;20223;-86
2021/01/09 09:01:14;;;;;;;38.47;25.63;;;3.30;89.70;;;;;;5010040;28;20224;-86
2021/01/09 09:03:48;;;;;;;33.13;24.33;;;3.30;89.50;;;;;;4995348;28;20695;-86
2021/01/09 09:06:25;;;;;;;32.20;24.47;;;3.30;89.00;;;;;;4993321;28;20264;-87
2021/01/09 09:08:54;;;;;;;35.83;24.27;;;3.20;89.10;;;;;;5016648;28;20224;-86
2021/01/09 09:11:25;;;;;;;29.93;22.13;;;3.20;89.30;;;;;;5017452;28;20290;-85
2021/01/09 09:14:06;;;;;;;31.10;23.20;;;3.30;89.50;;;;;;4992749;28;20248;-88
2021/01/09 09:16:38;;;;;;;36.37;23.83;;;3.40;89.30;;;;;;5019441;28;20247;-85
2021/01/09 09:19:35;;;;;;;34.10;24.53;;;3.60;89.10;;;;;;5004138;28;20209;-86
2021/01/09 09:22:04;;;;;;;36.30;23.50;;;3.70;89.00;;;;;;5002232;28;20232;-87
2021/01/09 09:24:45;;;;;;;34.20;23.80;;;3.80;88.90;;;;;;5000610;28;20223;-84
2021/01/09 09:27:38;;;;;;;31.60;21.53;;;3.90;89.00;;;;;;5017127;28;20216;-85
2021/01/09 09:30:11;;;;;;;30.63;21.73;;;4.00;87.80;;;;;;4994584;28;20209;-85
2021/01/09 09:33:08;;;;;;;31.13;22.30;;;4.10;87.60;;;;;;4995934;28;20216;-85
2021/01/09 09:36:09;;;;;;;29.63;21.23;;;4.10;87.50;;;;;;4979971;28;20318;-86
2021/01/09 09:38:36;;;;;;;31.00;20.90;;;4.20;87.20;;;;;;5017628;28;20216;-86
2021/01/09 09:41:04;;;;;;;32.30;21.70;;;4.10;86.30;;;;;;4999362;28;20303;-86
2021/01/09 09:43:31;;;;;;;30.73;21.00;;;4.10;86.10;;;;;;5016929;28;20688;-87
2021/01/09 09:46:04;;;;;;;32.63;22.10;;;4.10;86.20;;;;;;5002939;28;20209;-85
2021/01/09 09:48:32;;;;;;;31.03;21.87;;;4.10;86.50;;;;;;5017557;28;20641;-87
2021/01/09 09:51:04;;;;;;;33.03;21.63;;;4.20;86.50;;;;;;5022047;28;20235;-86
2021/01/09 09:53:48;;;;;;;33.07;22.60;;;4.20;86.40;;;;;;5001298;28;20208;-86
2021/01/09 09:56:21;;;;;;;27.63;21.20;;;4.30;86.40;;;;;;5017320;28;20216;-85
2021/01/09 09:59:03;;;;;;;34.73;21.47;;;4.40;86.40;;;;;;5016681;28;20223;-86
2021/01/09 10:01:29;;;;;;;24.97;18.10;;;4.50;86.30;;;;;;5020247;28;20253;-86
2021/01/09 10:03:57;;;;;;;26.40;20.17;;;4.50;86.60;;;;;;5018680;28;20240;-87
2021/01/09 10:06:40;;;;;;;25.83;18.93;;;4.60;84.70;;;;;;5014442;28;20209;-85
2021/01/09 10:09:15;;;;;;;27.93;20.90;;;4.70;84.60;;;;;;5003421;28;20200;-86
2021/01/09 10:12:09;;;;;;;27.93;19.47;;;4.70;84.10;;;;;;5016101;28;20223;-85
2021/01/09 10:18:00;;;;;;;27.40;19.83;;;4.90;84.20;;;;;;4987671;28;20216;-86
2021/01/09 10:20:29;;;;;;;32.67;20.03;;;5.00;84.00;;;;;;5019374;28;20240;-86
2021/01/09 10:23:07;;;;;;;26.03;19.07;;;5.10;83.90;;;;;;5003216;28;20223;-86
2021/01/09 10:25:35;;;;;;;29.00;19.60;;;5.20;83.90;;;;;;5018044;28;20235;-85
2021/01/09 10:31:51;;;;;;;23.90;18.47;;;5.20;83.50;;;;;;4997543;28;20220;-85
2021/01/09 10:34:27;;;;;;;25.03;18.87;;;5.30;83.60;;;;;;4993738;28;20243;-86
2021/01/09 10:36:55;;;;;;;23.00;17.57;;;5.30;83.60;;;;;;5017264;28;20216;-85
2021/01/09 10:39:22;;;;;;;24.57;17.27;;;5.30;82.40;;;;;;4999839;28;20565;-85
2021/01/09 10:41:52;;;;;;;25.27;17.17;;;5.20;81.60;;;;;;5015371;28;20233;-84
2021/01/09 10:44:22;;;;;;;22.50;16.50;;;5.10;81.70;;;;;;5005303;28;20331;-85
2021/01/09 10:46:55;;;;;;;22.67;16.67;;;5.00;80.90;;;;;;5003563;28;20663;-83
2021/01/09 10:49:23;;;;;;;22.30;16.63;;;4.90;80.40;;;;;;5019980;28;20211;-86
2021/01/09 10:51:55;;;;;;;25.10;17.67;;;4.80;80.60;;;;;;5004628;28;20208;-85
2021/01/09 10:54:22;;;;;;;23.33;16.23;;;4.70;80.80;;;;;;5018497;28;20207;-85
2021/01/09 10:56:49;;;;;;;25.80;18.97;;;4.70;80.50;;;;;;4995318;28;20216;-84
2021/01/09 10:59:18;;;;;;;25.07;18.07;;;4.70;80.70;;;;;;5017395;28;20222;-85
2021/01/09 11:01:46;;;;;;;26.90;17.80;;;4.70;81.00;;;;;;5021631;28;20291;-84
2021/01/09 11:04:20;;;;;;;30.30;19.20;;;4.70;81.00;;;;;;5020214;28;20227;-82
2021/01/09 11:07:37;;;;;;;31.07;20.33;;;4.70;81.30;;;;;;5020469;28;20254;-83
2021/01/09 11:10:10;;;;;;;30.20;22.43;;;4.70;82.30;;;;;;4992057;28;20589;-83
2021/01/09 11:12:37;;;;;;;26.97;21.03;;;4.70;83.30;;;;;;5019740;28;20219;-83
2021/01/09 11:15:07;;;;;;;26.70;20.93;;;4.60;83.20;;;;;;5018349;28;20648;-84
2021/01/09 11:17:34;;;;;;;35.00;21.43;;;4.40;83.90;;;;;;5019748;28;20222;-86
2021/01/09 11:20:02;;;;;;;26.70;20.53;;;4.40;83.90;;;;;;5008161;28;20239;-84
2021/01/09 11:22:29;;;;;;;30.77;21.83;;;4.40;84.20;;;;;;5018625;28;20303;-85
2021/01/09 11:24:56;;;;;;;29.10;21.90;;;4.30;84.10;;;;;;5017479;28;20215;-85
2021/01/09 11:27:24;;;;;;;31.67;21.90;;;4.30;84.50;;;;;;5016054;28;20292;-86
2021/01/09 11:29:53;;;;;;;30.13;20.33;;;4.30;84.80;;;;;;5001501;28;20602;-85
2021/01/09 11:32:21;;;;;;;30.20;20.10;;;4.40;84.50;;;;;;5017230;28;20215;-83
2021/01/09 11:34:50;;;;;;;25.30;18.97;;;4.40;84.30;;;;;;5018043;28;20222;-87
2021/01/09 11:37:21;;;;;;;29.20;19.97;;;4.40;83.80;;;;;;5007970;28;20566;-84
2021/01/09 11:39:54;;;;;;;28.40;19.83;;;4.40;83.90;;;;;;5019280;28;20235;-85
2021/01/09 11:42:22;;;;;;;30.27;20.53;;;4.50;83.70;;;;;;5020054;28;20223;-84
2021/01/09 11:44:50;;;;;;;25.30;19.97;;;4.50;83.60;;;;;;4999600;28;20279;-86
2021/01/09 11:47:17;;;;;;;36.93;22.00;;;4.60;83.50;;;;;;5003394;28;20208;-86
2021/01/09 11:49:43;;;;;;;24.87;19.07;;;4.70;83.60;;;;;;4999332;28;20208;-85
2021/01/09 11:52:11;;;;;;;30.37;21.43;;;4.80;83.60;;;;;;5000434;28;20212;-85
2021/01/09 11:54:39;;;;;;;37.33;20.97;;;4.90;83.30;;;;;;5014969;28;20213;-85
2021/01/09 11:57:07;;;;;;;30.13;21.60;;;4.90;83.10;;;;;;4999572;28;20614;-86
2021/01/09 11:59:33;;;;;;;26.60;20.60;;;5.00;83.10;;;;;;5014622;28;20230;-85
2021/01/09 12:02:00;;;;;;;30.87;22.40;;;5.10;82.90;;;;;;5015202;28;20232;-85
2021/01/09 12:04:27;;;;;;;29.47;21.67;;;5.20;82.80;;;;;;5014127;28;20227;-85
2021/01/09 12:07:04;;;;;;;29.67;21.57;;;5.30;82.30;;;;;;5015004;28;20522;-85
2021/01/09 12:09:31;;;;;;;27.67;21.60;;;5.40;82.50;;;;;;5014309;28;20201;-85
2021/01/09 12:11:59;;;;;;;27.37;20.23;;;5.50;82.50;;;;;;5012084;28;20209;-85
2021/01/09 12:14:27;;;;;;;25.03;18.73;;;5.50;81.80;;;;;;5015300;28;20621;-86
2021/01/09 12:16:55;;;;;;;23.03;18.17;;;5.50;81.60;;;;;;5021826;28;20216;-85
2021/01/09 12:19:36;;;;;;;26.93;19.27;;;5.60;80.60;;;;;;4999313;28;20208;-84
2021/01/09 12:22:07;;;;;;;25.47;19.37;;;5.60;80.60;;;;;;5002018;28;20311;-85
2021/01/09 12:24:37;;;;;;;25.97;18.03;;;5.60;80.60;;;;;;5005104;28;20631;-85
2021/01/09 12:27:04;;;;;;;26.00;18.57;;;5.70;80.60;;;;;;5016314;28;20208;-86
2021/01/09 12:29:33;;;;;;;29.77;21.10;;;5.70;80.70;;;;;;4999420;28;20219;-85
2021/01/09 12:32:28;;;;;;;27.57;20.73;;;5.80;80.90;;;;;;4998275;28;20221;-85
2021/01/09 12:34:55;;;;;;;29.27;21.07;;;5.80;81.00;;;;;;4997446;28;20236;-85
2021/01/09 12:37:23;;;;;;;26.70;20.67;;;5.90;80.80;;;;;;5013711;28;20239;-86
2021/01/09 12:39:55;;;;;;;33.77;19.40;;;5.90;80.60;;;;;;4996524;28;20236;-85
2021/01/09 12:42:25;;;;;;;27.63;20.07;;;6.00;80.50;;;;;;5011828;28;20224;-85
2021/01/09 12:44:55;;;;;;;24.47;19.97;;;6.00;80.40;;;;;;5012844;28;20577;-85
2021/01/09 12:47:23;;;;;;;27.33;19.57;;;6.10;80.20;;;;;;5012843;28;20284;-84
2021/01/09 12:49:51;;;;;;;26.37;19.90;;;6.10;80.00;;;;;;4996804;28;20291;-85
2021/01/09 12:52:19;;;;;;;25.30;18.00;;;6.10;80.00;;;;;;5012966;28;20224;-84
2021/01/09 12:54:47;;;;;;;26.57;18.23;;;6.10;79.80;;;;;;5013238;28;20244;-85
2021/01/09 12:57:28;;;;;;;24.77;18.17;;;6.10;79.40;;;;;;4998470;28;20212;-85
2021/01/09 12:59:55;;;;;;;25.57;18.60;;;6.10;79.20;;;;;;5014191;28;20217;-85
2021/01/09 13:02:22;;;;;;;24.03;17.10;;;6.20;79.00;;;;;;5014321;28;20247;-86
2021/01/09 13:04:53;;;;;;;25.47;17.87;;;6.20;78.80;;;;;;5002423;28;20220;-85
2021/01/09 13:07:21;;;;;;;25.30;19.03;;;6.20;77.90;;;;;;4998506;28;20208;-86
2021/01/09 13:09:51;;;;;;;24.70;18.20;;;6.20;77.40;;;;;;4993918;28;20213;-85
2021/01/09 13:12:19;;;;;;;26.17;19.03;;;6.20;77.50;;;;;;4988746;28;20212;-85
2021/01/09 13:15:04;;;;;;;23.53;17.40;;;6.20;77.50;;;;;;4997635;28;20219;-87
2021/01/09 13:17:31;;;;;;;21.17;16.50;;;6.30;78.40;;;;;;5005134;28;20721;-85